createdAt,value
2019-05-06T00:00:13.934Z,5.63
2019-05-06T00:00:56.630Z,5.93
2019-05-06T00:01:28.057Z,5.43
2019-05-06T00:02:04.531Z,5.57
2019-05-06T00:02:40.133Z,5.60
2019-05-06T00:03:15.887Z,5.57
2019-05-06T00:03:51.633Z,5.20
2019-05-06T00:04:27.280Z,5.83
2019-05-06T00:05:04.120Z,6.50
2019-05-06T00:05:39.642Z,5.73
2019-05-06T00:06:15.455Z,6.03
2019-05-06T00:06:50.889Z,5.97
2019-05-06T00:07:26.424Z,5.90
2019-05-06T00:08:04.023Z,6.20
2019-05-06T00:08:39.805Z,5.80
2019-05-06T00:09:16.177Z,6.10
2019-05-06T00:09:53.905Z,6.50
2019-05-06T00:10:31.456Z,6.90
2019-05-06T00:11:07.272Z,5.90
2019-05-06T00:11:44.711Z,6.10
2019-05-06T00:12:20.327Z,6.10
2019-05-06T00:12:56.419Z,5.67
2019-05-06T00:13:34.209Z,6.13
2019-05-06T00:14:09.766Z,6.00
2019-05-06T00:14:45.706Z,6.40
2019-05-06T00:15:21.166Z,6.27
2019-05-06T00:15:57.272Z,6.50
2019-05-06T00:16:34.738Z,5.50
2019-05-06T00:17:10.361Z,7.27
2019-05-06T00:17:46.275Z,7.13
2019-05-06T00:18:22.019Z,6.27
2019-05-06T00:18:57.583Z,7.57
2019-05-06T00:19:34.132Z,6.70
2019-05-06T00:20:10.044Z,6.50
2019-05-06T00:20:46.056Z,7.00
2019-05-06T00:21:24.366Z,6.67
2019-05-06T00:21:59.443Z,6.77
2019-05-06T00:22:34.905Z,6.83
2019-05-06T00:23:25.037Z,6.47
2019-05-06T00:24:00.775Z,6.63
2019-05-06T00:24:44.008Z,6.83
2019-05-06T00:25:26.085Z,6.57
2019-05-06T00:26:14.859Z,6.67
2019-05-06T00:26:57.613Z,6.50
2019-05-06T00:27:56.267Z,6.60
2019-05-06T00:28:40.723Z,7.07
2019-05-06T00:29:18.476Z,7.07
2019-05-06T00:29:55.039Z,8.00
2019-05-06T00:30:30.743Z,7.70
2019-05-06T00:31:12.958Z,7.13
2019-05-06T00:31:44.821Z,7.27
2019-05-06T00:32:20.258Z,6.67
2019-05-06T00:32:55.793Z,7.10
2019-05-06T00:33:33.991Z,6.80
2019-05-06T00:34:08.776Z,7.70
2019-05-06T00:34:44.588Z,7.20
2019-05-06T00:35:20.043Z,8.07
2019-05-06T00:35:55.704Z,6.70
2019-05-06T00:36:31.498Z,6.93
2019-05-06T00:37:06.930Z,6.83
2019-05-06T00:37:44.184Z,6.20
2019-05-06T00:38:19.706Z,6.27
2019-05-06T00:38:58.022Z,5.47
2019-05-06T00:39:53.875Z,6.13
2019-05-06T00:40:34.019Z,5.87
2019-05-06T00:41:14.422Z,5.80
2019-05-06T00:41:56.237Z,6.30
2019-05-06T00:42:34.623Z,6.63
2019-05-06T00:43:11.234Z,6.27
2019-05-06T00:43:46.672Z,6.40
2019-05-06T00:44:23.907Z,6.73
2019-05-06T00:44:59.692Z,6.43
2019-05-06T00:45:35.196Z,7.17
2019-05-06T00:46:10.805Z,6.20
2019-05-06T00:46:46.270Z,6.83
2019-05-06T00:47:22.035Z,5.80
2019-05-06T00:47:59.268Z,6.30
2019-05-06T00:48:35.060Z,6.10
2019-05-06T00:49:10.597Z,6.03
2019-05-06T00:49:46.336Z,6.17
2019-05-06T00:50:23.510Z,5.70
2019-05-06T00:50:59.490Z,6.20
2019-05-06T00:51:35.643Z,6.17
2019-05-06T00:52:11.200Z,6.73
2019-05-06T00:52:46.839Z,6.00
2019-05-06T00:53:23.991Z,6.47
2019-05-06T00:54:04.793Z,6.70
2019-05-06T00:54:40.804Z,6.17
2019-05-06T00:55:16.241Z,6.40
2019-05-06T00:55:53.668Z,6.67
2019-05-06T00:56:29.028Z,6.10
2019-05-06T00:57:04.476Z,5.80
2019-05-06T00:57:46.385Z,5.93
2019-05-06T00:58:23.806Z,6.43
2019-05-06T00:58:59.681Z,6.13
2019-05-06T00:59:35.133Z,6.53
2019-05-06T01:00:10.919Z,5.93
2019-05-06T01:00:46.673Z,5.67
2019-05-06T01:01:26.915Z,6.23
2019-05-06T01:01:59.998Z,6.13
2019-05-06T01:02:35.817Z,6.73
2019-05-06T01:03:11.606Z,5.90
2019-05-06T01:03:47.324Z,5.77
2019-05-06T01:04:24.490Z,6.20
2019-05-06T01:05:00.374Z,6.00
2019-05-06T01:05:35.837Z,5.40
2019-05-06T01:06:11.425Z,6.43
2019-05-06T01:06:47.701Z,6.13
2019-05-06T01:07:23.743Z,5.70
2019-05-06T01:08:00.188Z,5.83
2019-05-06T01:08:35.712Z,5.83
2019-05-06T01:09:14.712Z,6.10
2019-05-06T01:09:50.385Z,5.50
2019-05-06T01:10:26.065Z,5.57
2019-05-06T01:11:03.883Z,5.70
2019-05-06T01:11:39.281Z,5.97
2019-05-06T01:12:14.716Z,6.03
2019-05-06T01:13:08.332Z,6.30
2019-05-06T01:14:06.179Z,5.80
2019-05-06T01:14:46.231Z,6.47
2019-05-06T01:15:23.839Z,5.73
2019-05-06T01:15:59.402Z,6.17
2019-05-06T01:16:35.307Z,6.53
2019-05-06T01:17:13.312Z,6.90
2019-05-06T01:17:48.403Z,6.57
2019-05-06T01:18:24.494Z,5.90
2019-05-06T01:19:00.582Z,5.77
2019-05-06T01:19:36.006Z,4.83
2019-05-06T01:20:13.859Z,4.93
2019-05-06T01:20:51.185Z,5.67
2019-05-06T01:21:26.639Z,5.40
2019-05-06T01:22:04.548Z,5.30
2019-05-06T01:22:39.683Z,6.23
2019-05-06T01:23:15.208Z,5.40
2019-05-06T01:23:51.054Z,5.77
2019-05-06T01:24:26.815Z,5.37
2019-05-06T01:25:03.936Z,6.10
2019-05-06T01:25:39.815Z,5.87
2019-05-06T01:26:17.231Z,5.23
2019-05-06T01:26:53.618Z,5.60
2019-05-06T01:27:29.358Z,5.80
2019-05-06T01:28:04.806Z,5.33
2019-05-06T01:28:40.239Z,5.53
2019-05-06T01:29:15.700Z,5.03
2019-05-06T01:29:51.165Z,6.03
2019-05-06T01:30:26.938Z,5.20
2019-05-06T01:31:04.258Z,5.87
2019-05-06T01:31:43.215Z,5.63
2019-05-06T01:32:17.136Z,5.83
2019-05-06T01:32:54.357Z,6.07
2019-05-06T01:33:30.720Z,4.90
2019-05-06T01:34:06.646Z,6.10
2019-05-06T01:34:44.522Z,5.63
2019-05-06T01:35:19.223Z,6.00
2019-05-06T01:35:54.677Z,6.70
2019-05-06T01:36:30.179Z,5.90
2019-05-06T01:37:05.637Z,5.83
2019-05-06T01:37:44.017Z,5.73
2019-05-06T01:38:27.308Z,6.20
2019-05-06T01:39:13.870Z,7.33
2019-05-06T01:40:00.312Z,5.93
2019-05-06T01:40:43.964Z,6.47
2019-05-06T01:41:44.761Z,6.03
2019-05-06T01:42:51.552Z,6.57
2019-05-06T01:43:30.610Z,6.40
2019-05-06T01:44:06.164Z,6.50
2019-05-06T01:44:41.603Z,7.10
2019-05-06T01:45:17.701Z,6.97
2019-05-06T01:45:53.748Z,6.00
2019-05-06T01:46:29.330Z,6.17
2019-05-06T01:47:05.094Z,5.40
2019-05-06T01:47:41.191Z,6.03
2019-05-06T01:48:19.097Z,6.10
2019-05-06T01:48:54.530Z,6.33
2019-05-06T01:49:30.055Z,6.20
2019-05-06T01:50:06.507Z,6.20
2019-05-06T01:50:41.967Z,5.93
2019-05-06T01:51:18.912Z,6.27
2019-05-06T01:51:55.089Z,6.50
2019-05-06T01:52:30.950Z,6.17
2019-05-06T01:53:06.420Z,6.70
2019-05-06T01:53:41.858Z,7.00
2019-05-06T01:54:17.946Z,6.77
2019-05-06T01:54:54.307Z,6.97
2019-05-06T01:55:30.197Z,6.50
2019-05-06T01:56:05.630Z,6.87
2019-05-06T01:56:41.064Z,6.70
2019-05-06T01:57:16.508Z,5.97
2019-05-06T01:57:54.557Z,5.97
2019-05-06T01:58:30.473Z,6.03
2019-05-06T01:59:05.934Z,6.17
2019-05-06T01:59:41.383Z,5.90
2019-05-06T02:00:17.335Z,5.93
2019-05-06T02:00:54.468Z,6.17
2019-05-06T02:01:30.444Z,6.63
2019-05-06T02:02:06.466Z,6.30
2019-05-06T02:02:43.937Z,6.20
2019-05-06T02:03:20.005Z,6.20
2019-05-06T02:03:55.650Z,5.77
2019-05-06T02:04:33.577Z,5.70
2019-05-06T02:05:09.520Z,6.47
2019-05-06T02:05:45.006Z,5.73
2019-05-06T02:06:20.439Z,5.70
2019-05-06T02:06:56.212Z,6.77
2019-05-06T02:07:31.730Z,6.20
2019-05-06T02:08:07.197Z,6.43
2019-05-06T02:08:44.820Z,6.40
2019-05-06T02:09:20.120Z,6.40
2019-05-06T02:09:55.704Z,6.53
2019-05-06T02:10:31.187Z,6.40
2019-05-06T02:11:06.968Z,6.53
2019-05-06T02:11:44.199Z,5.60
2019-05-06T02:12:20.151Z,5.67
2019-05-06T02:12:56.261Z,6.57
2019-05-06T02:13:32.180Z,6.27
2019-05-06T02:14:07.985Z,5.93
2019-05-06T02:14:43.768Z,6.87
2019-05-06T02:15:19.776Z,6.30
2019-05-06T02:15:55.238Z,6.93
2019-05-06T02:16:31.091Z,6.50
2019-05-06T02:17:06.872Z,5.83
2019-05-06T02:17:44.091Z,6.10
2019-05-06T02:18:20.708Z,5.50
2019-05-06T02:18:56.203Z,6.33
2019-05-06T02:19:34.553Z,5.50
2019-05-06T02:20:10.094Z,6.50
2019-05-06T02:20:46.226Z,6.23
2019-05-06T02:21:40.638Z,6.73
2019-05-06T02:22:41.194Z,6.07
2019-05-06T02:23:19.679Z,6.63
2019-05-06T02:23:59.123Z,7.17
2019-05-06T02:24:56.329Z,6.60
2019-05-06T02:25:37.843Z,6.50
2019-05-06T02:26:14.244Z,6.90
2019-05-06T02:26:49.830Z,7.00
2019-05-06T02:27:25.347Z,7.00
2019-05-06T02:28:01.232Z,6.87
2019-05-06T02:28:39.034Z,7.20
2019-05-06T02:29:16.847Z,6.93
2019-05-06T02:29:57.761Z,6.83
2019-05-06T02:30:49.448Z,8.20
2019-05-06T02:31:49.280Z,7.17
2019-05-06T02:32:51.724Z,7.60
2019-05-06T02:33:35.811Z,6.57
2019-05-06T02:34:15.479Z,6.67
2019-05-06T02:34:58.249Z,6.20
2019-05-06T02:35:50.312Z,6.90
2019-05-06T02:36:34.240Z,6.93
2019-05-06T02:37:14.731Z,7.07
2019-05-06T02:37:49.300Z,6.83
2019-05-06T02:38:35.617Z,7.50
2019-05-06T02:39:05.425Z,6.97
2019-05-06T02:39:43.692Z,6.53
2019-05-06T02:40:25.296Z,7.00
2019-05-06T02:41:03.528Z,7.10
2019-05-06T02:41:39.217Z,6.90
2019-05-06T02:42:14.675Z,7.37
2019-05-06T02:42:50.106Z,6.63
2019-05-06T02:43:25.565Z,7.53
2019-05-06T02:44:03.632Z,7.57
2019-05-06T02:44:38.842Z,8.07
2019-05-06T02:45:14.473Z,7.57
2019-05-06T02:45:53.076Z,7.47
2019-05-06T02:46:27.587Z,6.93
2019-05-06T02:47:14.448Z,7.37
2019-05-06T02:47:56.166Z,7.27
2019-05-06T02:48:43.013Z,7.53
2019-05-06T02:49:25.432Z,7.77
2019-05-06T02:50:04.910Z,7.47
2019-05-06T02:50:58.251Z,6.80
2019-05-06T02:51:33.804Z,7.10
2019-05-06T02:52:09.249Z,6.60
2019-05-06T02:52:44.772Z,6.60
2019-05-06T02:53:23.592Z,6.63
2019-05-06T02:53:59.313Z,6.83
2019-05-06T02:54:34.898Z,6.60
2019-05-06T02:55:12.774Z,6.07
2019-05-06T02:55:47.510Z,7.10
2019-05-06T02:56:24.116Z,6.53
2019-05-06T02:56:59.688Z,6.60
2019-05-06T02:57:35.353Z,6.87
2019-05-06T02:58:10.819Z,7.03
2019-05-06T02:58:46.223Z,6.53
2019-05-06T02:59:24.018Z,7.10
2019-05-06T02:59:58.930Z,7.10
2019-05-06T03:00:34.790Z,7.00
2019-05-06T03:01:13.396Z,7.37
2019-05-06T03:01:48.042Z,7.03
2019-05-06T03:02:38.034Z,6.30
2019-05-06T03:03:02.876Z,6.63
2019-05-06T03:03:37.899Z,6.87
2019-05-06T03:04:13.376Z,7.20
2019-05-06T03:04:52.596Z,7.43
2019-05-06T03:05:26.717Z,6.70
2019-05-06T03:06:03.997Z,6.37
2019-05-06T03:06:39.401Z,6.70
2019-05-06T03:07:14.878Z,7.40
2019-05-06T03:07:57.043Z,6.80
2019-05-06T03:08:28.892Z,6.87
2019-05-06T03:09:06.462Z,6.47
2019-05-06T03:09:44.576Z,6.90
2019-05-06T03:10:19.502Z,6.10
2019-05-06T03:10:55.085Z,7.20
2019-05-06T03:11:33.207Z,6.63
2019-05-06T03:12:08.462Z,7.43
2019-05-06T03:12:44.109Z,6.93
2019-05-06T03:13:19.696Z,6.73
2019-05-06T03:13:55.307Z,6.27
2019-05-06T03:14:34.261Z,7.27
2019-05-06T03:15:08.708Z,7.30
2019-05-06T03:15:44.184Z,7.10
2019-05-06T03:16:23.539Z,6.80
2019-05-06T03:16:57.757Z,7.10
2019-05-06T03:17:33.631Z,6.83
2019-05-06T03:18:09.116Z,6.63
2019-05-06T03:18:44.573Z,6.30
2019-05-06T03:19:20.010Z,7.10
2019-05-06T03:19:56.885Z,7.63
2019-05-06T03:20:57.491Z,7.67
2019-05-06T03:21:45.205Z,7.00
2019-05-06T03:22:34.554Z,7.20
2019-05-06T03:23:08.659Z,6.83
2019-05-06T03:23:46.928Z,6.97
2019-05-06T03:24:43.627Z,7.13
2019-05-06T03:25:27.051Z,7.80
2019-05-06T03:26:05.765Z,7.20
2019-05-06T03:26:39.814Z,7.40
2019-05-06T03:27:15.288Z,7.10
2019-05-06T03:27:53.229Z,6.77
2019-05-06T03:28:27.966Z,7.40
2019-05-06T03:29:03.511Z,7.17
2019-05-06T03:29:38.948Z,6.83
2019-05-06T03:30:16.557Z,7.17
2019-05-06T03:30:56.423Z,7.10
2019-05-06T03:31:29.608Z,7.20
2019-05-06T03:32:06.976Z,7.50
2019-05-06T03:33:20.959Z,7.40
2019-05-06T03:33:40.189Z,6.77
2019-05-06T03:34:21.104Z,7.77
2019-05-06T03:34:58.776Z,7.80
2019-05-06T03:35:27.341Z,6.97
2019-05-06T03:36:00.562Z,7.07
2019-05-06T03:36:32.949Z,7.97
2019-05-06T03:37:07.190Z,7.50
2019-05-06T03:37:44.019Z,7.90
2019-05-06T03:38:22.716Z,8.03
2019-05-06T03:38:57.283Z,7.80
2019-05-06T03:39:33.890Z,7.67
2019-05-06T03:40:10.271Z,7.37
2019-05-06T03:40:46.114Z,7.43
2019-05-06T03:41:23.365Z,8.73
2019-05-06T03:41:59.205Z,8.63
2019-05-06T03:42:34.721Z,7.87
2019-05-06T03:43:13.664Z,7.63
2019-05-06T03:43:47.406Z,7.57
2019-05-06T03:44:23.954Z,7.50
2019-05-06T03:45:04.381Z,8.07
2019-05-06T03:45:59.002Z,7.70
2019-05-06T03:46:53.982Z,7.40
2019-05-06T03:47:43.310Z,8.00
2019-05-06T03:48:24.526Z,7.17
2019-05-06T03:49:03.668Z,7.50
2019-05-06T03:49:43.631Z,7.43
2019-05-06T03:50:19.322Z,8.03
2019-05-06T03:50:56.011Z,8.17
2019-05-06T03:51:34.350Z,7.67
2019-05-06T03:52:09.487Z,7.83
2019-05-06T03:52:45.367Z,7.87
2019-05-06T03:53:23.238Z,7.47
2019-05-06T03:54:03.269Z,7.37
2019-05-06T03:54:39.290Z,7.07
2019-05-06T03:55:14.815Z,7.57
2019-05-06T03:55:53.941Z,8.50
2019-05-06T03:56:29.539Z,7.53
2019-05-06T03:57:06.035Z,8.37
2019-05-06T03:57:42.969Z,8.27
2019-05-06T03:58:23.610Z,8.43
2019-05-06T03:58:59.384Z,8.40
2019-05-06T03:59:36.827Z,7.50
2019-05-06T04:00:15.972Z,8.07
2019-05-06T04:00:53.104Z,7.87
2019-05-06T04:01:28.974Z,8.43
2019-05-06T04:02:05.430Z,8.90
2019-05-06T04:02:43.490Z,8.97
2019-05-06T04:03:18.199Z,8.17
2019-05-06T04:03:57.152Z,8.57
2019-05-06T04:04:33.199Z,8.53
2019-05-06T04:05:08.511Z,8.27
2019-05-06T04:05:44.870Z,8.27
2019-05-06T04:06:24.023Z,8.43
2019-05-06T04:06:58.985Z,8.80
2019-05-06T04:07:34.799Z,8.60
2019-05-06T04:08:12.749Z,8.63
2019-05-06T04:08:52.601Z,8.97
2019-05-06T04:09:26.849Z,8.60
2019-05-06T04:10:03.431Z,8.03
2019-05-06T04:10:39.402Z,7.90
2019-05-06T04:11:18.352Z,8.60
2019-05-06T04:11:54.440Z,8.63
2019-05-06T04:12:33.282Z,8.77
2019-05-06T04:13:13.493Z,8.07
2019-05-06T04:13:50.036Z,7.70
2019-05-06T04:14:27.307Z,8.23
2019-05-06T04:15:04.388Z,8.63
2019-05-06T04:16:08.302Z,8.40
2019-05-06T04:16:53.236Z,8.40
2019-05-06T04:17:57.185Z,8.23
2019-05-06T04:18:33.622Z,7.13
2019-05-06T04:19:24.883Z,8.60
2019-05-06T04:20:07.735Z,8.63
2019-05-06T04:20:53.264Z,9.50
2019-05-06T04:21:35.440Z,7.50
2019-05-06T04:22:36.302Z,8.13
2019-05-06T04:23:25.659Z,7.77
2019-05-06T04:24:22.768Z,7.97
2019-05-06T04:25:14.057Z,7.87
2019-05-06T04:25:58.181Z,8.77
2019-05-06T04:26:46.359Z,8.40
2019-05-06T04:27:36.999Z,9.20
2019-05-06T04:28:18.461Z,8.10
2019-05-06T04:28:55.645Z,7.80
2019-05-06T04:29:33.092Z,8.67
2019-05-06T04:30:09.051Z,8.87
2019-05-06T04:30:44.631Z,8.77
2019-05-06T04:31:22.707Z,8.57
2019-05-06T04:31:57.241Z,9.10
2019-05-06T04:32:34.094Z,8.60
2019-05-06T04:33:14.112Z,9.30
2019-05-06T04:34:05.361Z,9.57
2019-05-06T04:34:24.953Z,8.83
2019-05-06T04:35:04.084Z,8.67
2019-05-06T04:35:38.405Z,8.93
2019-05-06T04:36:14.166Z,9.10
2019-05-06T04:36:49.600Z,8.13
2019-05-06T04:37:25.093Z,9.33
2019-05-06T04:38:03.137Z,8.83
2019-05-06T04:38:38.770Z,9.13
2019-05-06T04:39:14.771Z,9.50
2019-05-06T04:39:53.179Z,9.17
2019-05-06T04:40:28.400Z,8.90
2019-05-06T04:41:04.423Z,9.30
2019-05-06T04:41:43.060Z,8.53
2019-05-06T04:42:17.560Z,9.57
2019-05-06T04:42:53.330Z,9.00
2019-05-06T04:43:29.170Z,10.10
2019-05-06T04:44:04.805Z,8.97
2019-05-06T04:44:40.312Z,9.87
2019-05-06T04:45:17.264Z,9.00
2019-05-06T04:45:54.189Z,9.37
2019-05-06T04:46:34.370Z,9.80
2019-05-06T04:47:08.259Z,11.00
2019-05-06T04:47:43.786Z,10.97
2019-05-06T04:48:19.274Z,11.30
2019-05-06T04:48:57.261Z,10.93
2019-05-06T04:49:33.296Z,11.53
2019-05-06T04:50:09.453Z,11.90
2019-05-06T04:50:44.921Z,11.23
2019-05-06T04:51:24.616Z,12.73
2019-05-06T04:51:59.079Z,11.77
2019-05-06T04:52:34.547Z,12.67
2019-05-06T04:53:10.450Z,12.07
2019-05-06T04:53:47.132Z,12.80
2019-05-06T04:54:26.225Z,12.17
2019-05-06T04:55:03.133Z,12.77
2019-05-06T04:55:37.732Z,12.07
2019-05-06T04:56:14.375Z,11.57
2019-05-06T04:56:53.452Z,12.60
2019-05-06T04:57:28.051Z,13.30
2019-05-06T04:58:05.729Z,12.73
2019-05-06T04:58:42.897Z,13.23
2019-05-06T04:59:19.353Z,12.00
2019-05-06T04:59:55.273Z,12.10
2019-05-06T05:00:33.135Z,12.17
2019-05-06T05:01:11.900Z,11.90
2019-05-06T05:01:45.986Z,12.47
2019-05-06T05:02:23.043Z,12.33
2019-05-06T05:02:58.967Z,12.53
2019-05-06T05:03:35.430Z,11.27
2019-05-06T05:04:24.556Z,11.43
2019-05-06T05:04:48.565Z,12.07
2019-05-06T05:05:24.228Z,12.13
2019-05-06T05:06:02.980Z,11.67
2019-05-06T05:06:37.462Z,10.70
2019-05-06T05:07:12.994Z,12.20
2019-05-06T05:07:49.032Z,12.07
2019-05-06T05:08:36.882Z,12.10
2019-05-06T05:09:17.144Z,11.70
2019-05-06T05:09:53.834Z,11.80
2019-05-06T05:10:35.903Z,12.30
2019-05-06T05:11:35.279Z,12.00
2019-05-06T05:12:16.301Z,12.83
2019-05-06T05:13:12.644Z,12.63
2019-05-06T05:13:56.353Z,11.77
2019-05-06T05:14:36.940Z,11.47
2019-05-06T05:15:32.547Z,12.20
2019-05-06T05:16:14.838Z,12.63
2019-05-06T05:16:58.571Z,12.13
2019-05-06T05:17:42.366Z,11.43
2019-05-06T05:18:25.099Z,12.10
2019-05-06T05:19:06.518Z,10.67
2019-05-06T05:19:42.925Z,11.13
2019-05-06T05:20:18.468Z,10.17
2019-05-06T05:20:55.330Z,10.53
2019-05-06T05:21:32.256Z,10.73
2019-05-06T05:22:08.155Z,11.60
2019-05-06T05:22:44.835Z,10.80
2019-05-06T05:23:22.818Z,11.23
2019-05-06T05:23:58.507Z,11.07
2019-05-06T05:24:34.359Z,11.90
2019-05-06T05:25:12.064Z,11.37
2019-05-06T05:25:47.515Z,11.70
2019-05-06T05:26:23.437Z,11.10
2019-05-06T05:26:59.066Z,10.70
2019-05-06T05:27:34.655Z,11.80
2019-05-06T05:28:12.966Z,11.10
2019-05-06T05:28:48.324Z,11.60
2019-05-06T05:29:23.891Z,11.57
2019-05-06T05:29:59.440Z,11.57
2019-05-06T05:30:35.515Z,10.97
2019-05-06T05:31:12.341Z,11.07
2019-05-06T05:31:47.859Z,11.20
2019-05-06T05:32:26.545Z,11.93
2019-05-06T05:33:02.601Z,10.60
2019-05-06T05:33:38.190Z,11.03
2019-05-06T05:34:14.465Z,11.47
2019-05-06T05:34:52.102Z,11.27
2019-05-06T05:35:27.910Z,10.93
2019-05-06T05:36:03.403Z,11.37
2019-05-06T05:36:39.634Z,11.30
2019-05-06T05:37:15.892Z,12.03
2019-05-06T05:37:52.918Z,12.17
2019-05-06T05:38:29.124Z,12.03
2019-05-06T05:39:07.178Z,11.83
2019-05-06T05:39:42.893Z,12.10
2019-05-06T05:40:18.769Z,11.97
2019-05-06T05:40:54.555Z,12.20
2019-05-06T05:41:30.045Z,11.43
2019-05-06T05:42:17.106Z,11.80
2019-05-06T05:43:02.883Z,11.07
2019-05-06T05:43:48.528Z,11.30
2019-05-06T05:44:29.931Z,10.67
2019-05-06T05:45:05.793Z,11.23
2019-05-06T05:45:42.498Z,12.10
2019-05-06T05:46:18.269Z,10.90
2019-05-06T05:46:53.739Z,10.60
2019-05-06T05:47:29.377Z,11.47
2019-05-06T05:48:12.379Z,11.17
2019-05-06T05:49:11.927Z,11.33
2019-05-06T05:50:22.839Z,11.67
2019-05-06T05:50:58.855Z,11.47
2019-05-06T05:51:34.346Z,10.27
2019-05-06T05:52:12.526Z,12.03
2019-05-06T05:52:47.856Z,11.63
2019-05-06T05:53:23.639Z,11.60
2019-05-06T05:54:02.059Z,11.60
2019-05-06T05:54:37.117Z,11.57
2019-05-06T05:55:13.360Z,11.37
2019-05-06T05:55:48.920Z,11.57
2019-05-06T05:56:24.595Z,10.50
2019-05-06T05:57:02.386Z,10.97
2019-05-06T05:57:38.392Z,11.27
2019-05-06T05:58:13.906Z,10.47
2019-05-06T05:58:49.683Z,11.77
2019-05-06T05:59:25.492Z,10.60
2019-05-06T06:00:03.703Z,10.63
2019-05-06T06:00:39.695Z,11.30
2019-05-06T06:01:15.151Z,11.60
2019-05-06T06:01:52.899Z,11.00
2019-05-06T06:02:30.640Z,11.37
2019-05-06T06:03:07.450Z,10.80
2019-05-06T06:03:42.978Z,11.10
2019-05-06T06:04:18.963Z,11.10
2019-05-06T06:04:57.673Z,10.87
2019-05-06T06:05:32.982Z,11.30
2019-05-06T06:06:08.936Z,11.00
2019-05-06T06:06:44.474Z,11.40
2019-05-06T06:07:20.257Z,11.70
2019-05-06T06:07:55.718Z,11.80
2019-05-06T06:08:32.258Z,11.07
2019-05-06T06:09:08.273Z,12.17
2019-05-06T06:09:57.884Z,11.60
2019-05-06T06:11:04.555Z,10.90
2019-05-06T06:11:46.518Z,10.80
2019-05-06T06:12:23.052Z,10.70
2019-05-06T06:12:58.923Z,11.70
2019-05-06T06:13:34.458Z,11.30
2019-05-06T06:14:29.376Z,11.53
2019-05-06T06:15:24.251Z,10.37
2019-05-06T06:16:27.946Z,9.93
2019-05-06T06:17:18.442Z,10.27
2019-05-06T06:18:16.255Z,10.70
2019-05-06T06:19:03.201Z,11.00
2019-05-06T06:19:47.935Z,10.80
2019-05-06T06:20:42.408Z,10.93
2019-05-06T06:21:32.241Z,11.03
2019-05-06T06:22:14.791Z,10.90
2019-05-06T06:22:52.183Z,10.73
2019-05-06T06:23:32.366Z,9.80
2019-05-06T06:24:16.135Z,10.50
2019-05-06T06:24:52.632Z,10.97
2019-05-06T06:25:28.229Z,10.30
2019-05-06T06:26:04.180Z,11.20
2019-05-06T06:26:39.766Z,10.77
2019-05-06T06:27:15.233Z,10.07
2019-05-06T06:27:52.091Z,10.87
2019-05-06T06:28:28.181Z,10.43
2019-05-06T06:29:03.734Z,10.93
2019-05-06T06:29:41.706Z,9.63
2019-05-06T06:30:16.754Z,9.93
2019-05-06T06:31:04.693Z,11.03
2019-05-06T06:32:03.146Z,10.03
2019-05-06T06:32:38.701Z,9.87
2019-05-06T06:33:14.194Z,10.53
2019-05-06T06:33:52.964Z,10.50
2019-05-06T06:34:33.775Z,10.43
2019-05-06T06:35:28.359Z,9.80
2019-05-06T06:36:12.301Z,10.87
2019-05-06T06:37:10.022Z,9.90
2019-05-06T06:37:59.682Z,9.83
2019-05-06T06:38:47.953Z,10.33
2019-05-06T06:39:26.885Z,9.73
2019-05-06T06:40:02.785Z,11.00
2019-05-06T06:40:38.482Z,9.63
2019-05-06T06:41:14.333Z,9.73
2019-05-06T06:41:51.934Z,10.73
2019-05-06T06:42:27.521Z,9.87
2019-05-06T06:43:06.235Z,10.07
2019-05-06T06:43:42.146Z,10.13
2019-05-06T06:44:22.126Z,10.67
2019-05-06T06:44:57.662Z,10.20
2019-05-06T06:45:33.853Z,10.30
2019-05-06T06:46:09.590Z,11.60
2019-05-06T06:46:45.436Z,10.53
2019-05-06T06:47:22.453Z,11.03
2019-05-06T06:47:58.326Z,10.27
2019-05-06T06:48:34.286Z,11.13
2019-05-06T06:49:12.724Z,10.37
2019-05-06T06:49:48.423Z,10.53
2019-05-06T06:50:23.901Z,10.37
2019-05-06T06:50:59.773Z,9.97
2019-05-06T06:51:35.542Z,10.03
2019-05-06T06:52:14.609Z,9.87
2019-05-06T06:52:48.706Z,9.07
2019-05-06T06:53:24.151Z,9.17
2019-05-06T06:54:01.973Z,9.70
2019-05-06T06:54:37.870Z,9.10
2019-05-06T06:55:13.582Z,9.97
2019-05-06T06:55:49.043Z,9.00
2019-05-06T06:56:33.911Z,10.70
2019-05-06T06:57:31.289Z,9.20
2019-05-06T06:58:24.455Z,10.23
2019-05-06T06:59:15.017Z,10.37
2019-05-06T07:00:03.880Z,10.07
2019-05-06T07:00:56.148Z,10.17
2019-05-06T07:01:37.787Z,10.20
2019-05-06T07:02:23.548Z,9.97
2019-05-06T07:03:03.126Z,10.03
2019-05-06T07:04:10.465Z,9.70
2019-05-06T07:04:47.816Z,9.57
2019-05-06T07:05:54.701Z,9.67
2019-05-06T07:06:42.915Z,9.10
2019-05-06T07:07:18.734Z,9.93
2019-05-06T07:07:54.503Z,9.23
2019-05-06T07:08:34.863Z,9.53
2019-05-06T07:09:08.073Z,9.97
2019-05-06T07:09:44.001Z,9.70
2019-05-06T07:10:37.043Z,10.60
2019-05-06T07:11:13.123Z,9.30
2019-05-06T07:11:49.007Z,9.30
2019-05-06T07:12:26.553Z,10.03
2019-05-06T07:13:03.033Z,9.47
2019-05-06T07:13:42.757Z,9.33
2019-05-06T07:14:18.753Z,10.47
2019-05-06T07:15:02.236Z,10.33
2019-05-06T07:15:38.384Z,10.13
2019-05-06T07:16:14.362Z,9.73
2019-05-06T07:16:50.151Z,9.57
2019-05-06T07:17:25.618Z,9.33
2019-05-06T07:18:02.279Z,9.87
2019-05-06T07:18:38.346Z,10.00
2019-05-06T07:19:15.813Z,9.23
2019-05-06T07:19:55.560Z,9.70
2019-05-06T07:20:34.830Z,9.70
2019-05-06T07:21:22.533Z,9.57
2019-05-06T07:21:58.813Z,9.57
2019-05-06T07:22:37.431Z,8.47
2019-05-06T07:23:25.274Z,9.37
2019-05-06T07:24:02.177Z,10.10
2019-05-06T07:24:38.056Z,9.03
2019-05-06T07:25:13.663Z,9.20
2019-05-06T07:25:49.475Z,9.47
2019-05-06T07:26:28.171Z,9.63
2019-05-06T07:27:12.616Z,9.93
2019-05-06T07:27:48.526Z,9.23
2019-05-06T07:28:24.516Z,9.57
2019-05-06T07:29:05.967Z,9.67
2019-05-06T07:29:37.170Z,9.30
2019-05-06T07:30:13.010Z,9.40
2019-05-06T07:30:48.464Z,8.97
2019-05-06T07:31:26.658Z,9.13
2019-05-06T07:32:02.705Z,10.10
2019-05-06T07:32:38.548Z,9.40
2019-05-06T07:33:14.044Z,9.83
2019-05-06T07:33:49.468Z,9.23
2019-05-06T07:34:25.297Z,8.77
2019-05-06T07:35:02.398Z,9.40
2019-05-06T07:35:41.007Z,9.13
2019-05-06T07:36:16.032Z,9.47
2019-05-06T07:36:52.437Z,9.40
2019-05-06T07:37:28.422Z,9.20
2019-05-06T07:38:03.869Z,9.63
2019-05-06T07:38:42.841Z,8.90
2019-05-06T07:39:18.409Z,9.03
2019-05-06T07:39:54.175Z,8.27
2019-05-06T07:40:29.665Z,9.73
2019-05-06T07:41:17.180Z,9.27
2019-05-06T07:41:55.717Z,9.17
2019-05-06T07:42:37.462Z,8.90
2019-05-06T07:43:41.924Z,8.60
2019-05-06T07:44:39.095Z,8.33
2019-05-06T07:45:39.578Z,9.00
2019-05-06T07:46:25.715Z,8.47
2019-05-06T07:47:15.753Z,8.40
2019-05-06T07:47:57.092Z,9.37
2019-05-06T07:48:32.988Z,8.87
2019-05-06T07:49:08.885Z,9.00
2019-05-06T07:49:44.416Z,9.00
2019-05-06T07:50:19.881Z,8.93
2019-05-06T07:50:55.728Z,9.40
2019-05-06T07:51:32.453Z,8.97
2019-05-06T07:52:08.530Z,8.13
2019-05-06T07:53:03.386Z,9.20
2019-05-06T07:53:39.484Z,8.63
2019-05-06T07:54:15.779Z,8.57
2019-05-06T07:54:53.155Z,7.53
2019-05-06T07:55:28.369Z,8.50
2019-05-06T07:56:03.956Z,8.70
2019-05-06T07:56:39.572Z,7.67
2019-05-06T07:57:15.633Z,7.93
2019-05-06T07:57:52.516Z,7.83
2019-05-06T07:58:28.136Z,7.87
2019-05-06T07:59:09.967Z,8.50
2019-05-06T07:59:45.541Z,7.67
2019-05-06T08:00:22.992Z,7.37
2019-05-06T08:00:58.716Z,7.83
2019-05-06T08:01:34.333Z,6.70
2019-05-06T08:02:10.079Z,7.87
2019-05-06T08:02:45.636Z,7.67
2019-05-06T08:03:22.251Z,7.30
2019-05-06T08:03:57.817Z,7.57
2019-05-06T08:04:33.778Z,6.97
2019-05-06T08:05:09.357Z,8.07
2019-05-06T08:05:54.662Z,7.67
2019-05-06T08:06:22.839Z,8.70
2019-05-06T08:06:58.402Z,7.33
2019-05-06T08:07:33.933Z,7.70
2019-05-06T08:08:09.859Z,7.60
2019-05-06T08:08:45.652Z,8.27
2019-05-06T08:09:22.172Z,7.40
2019-05-06T08:09:58.009Z,7.47
2019-05-06T08:10:33.637Z,7.87
2019-05-06T08:11:09.172Z,7.53
2019-05-06T08:11:44.713Z,6.33
2019-05-06T08:12:22.253Z,6.43
2019-05-06T08:12:57.511Z,6.60
2019-05-06T08:13:33.433Z,6.93
2019-05-06T08:14:08.914Z,6.47
2019-05-06T08:14:44.805Z,6.73
2019-05-06T08:15:22.549Z,6.73
2019-05-06T08:15:58.190Z,7.23
2019-05-06T08:16:36.118Z,7.50
2019-05-06T08:17:24.151Z,6.93
2019-05-06T08:17:59.626Z,7.03
2019-05-06T08:18:35.303Z,6.83
2019-05-06T08:19:12.018Z,5.77
2019-05-06T08:19:47.450Z,6.23
2019-05-06T08:20:36.726Z,6.47
2019-05-06T08:21:18.600Z,5.67
2019-05-06T08:21:56.273Z,5.63
2019-05-06T08:22:49.621Z,5.40
2019-05-06T08:23:47.291Z,5.97
2019-05-06T08:24:22.923Z,4.33
2019-05-06T08:24:58.688Z,5.53
2019-05-06T08:25:39.506Z,5.80
2019-05-06T08:26:17.626Z,5.57
2019-05-06T08:26:52.513Z,5.50
2019-05-06T08:27:29.282Z,5.30
2019-05-06T08:28:04.755Z,5.33
2019-05-06T08:28:41.719Z,5.57
2019-05-06T08:29:17.777Z,5.40
2019-05-06T08:29:53.279Z,6.17
2019-05-06T08:30:28.810Z,5.33
2019-05-06T08:31:04.786Z,4.97